Time;durP1;ratioP1;P1;durP2;ratioP2;P2;SDS_P1;SDS_P2;PMS_P1;PMS_P2;Temp;Humidity;BMP_temperature;BMP_pressure;BME280_temperature;BME280_humidity;BME280_pressure;Samples;Min_cycle;Max_cycle;Signal;HPM_P1;HPM_P2
2022/02/17 06:34:31;;;;;;;7.05;1.92;;;;;;;4.12;80.21;99930.41;5895325;23;20065;-86
2022/02/17 06:38:38;;;;;;;;;;;;;;;;;;;;;
2022/02/17 06:42:33;;;;;;;;;;;;;;;;;;;;;
2022/02/17 06:45:56;;;;;;;;;;;;;;;;;;;;;
2022/02/17 06:50:17;;;;;;;7.20;1.38;;;;;;;4.08;80.85;99931.38;5058933;28;20147;-86
2022/02/17 06:54:00;;;;;;;8.07;1.17;;;;;;;4.11;80.51;99942.50;5008218;28;20054;-84
2022/02/17 06:58:06;;;;;;;;;;;;;;;;;;;;;
2022/02/17 07:01:58;;;;;;;4.30;1.48;;;;;;;4.08;81.06;99964.22;4928114;29;20079;-84
2022/02/17 07:05:20;;;;;;;;;;;;;;;;;;;;;
2022/02/17 07:08:35;;;;;;;15.38;3.63;;;;;;;4.13;81.21;99953.94;4974017;28;20057;-85
2022/02/17 07:11:24;;;;;;;10.05;2.08;;;;;;;4.15;81.11;99968.13;5005648;28;20061;-84
2022/02/17 07:14:43;;;;;;;7.05;1.60;;;;;;;4.15;81.32;99970.06;4976286;28;20057;-85
2022/02/17 07:17:39;;;;;;;8.55;1.42;;;;;;;4.17;81.51;99956.84;4973249;28;20206;-84
2022/02/17 07:21:05;;;;;;;7.18;1.65;;;;;;;4.16;81.22;99974.38;4987377;28;20610;-85
2022/02/17 07:24:33;;;;;;;;;;;;;;;;;;;;;
2022/02/17 07:28:05;;;;;;;;;;;;;;;;;;;;;
2022/02/17 07:31:52;;;;;;;;;;;;;;;;;;;;;
2022/02/17 07:39:54;;;;;;;;;;;;;;;;;;;;;
2022/02/17 07:59:43;;;;;;;;;;;;;;;;;;;;;
2022/02/17 08:57:29;;;;;;;8.77;2.10;;;;;;;5.34;79.81;100067.84;5743335;25;20092;-83
2022/02/17 09:35:37;;;;;;;;;;;;;;;;;;;;;
2022/02/17 09:44:08;;;;;;;;;;;;;;;;;;;;;
2022/02/17 11:10:08;;;;;;;1.77;0.60;;;;;;;5.22;83.01;100144.53;6297687;22;20031;-85
2022/02/17 11:33:22;;;;;;;1.83;0.93;;;;;;;5.63;83.05;100122.03;6034547;23;20053;-88
2022/02/17 11:35:57;;;;;;;5.50;0.73;;;;;;;5.77;82.96;100121.84;6135336;23;20234;-84
2022/02/17 11:39:30;;;;;;;3.63;0.88;;;;;;;5.87;83.76;100124.25;6126104;23;20018;-91
2022/02/17 11:42:00;;;;;;;4.03;1.00;;;;;;;5.94;83.38;100121.78;6185156;22;20023;-78
2022/02/17 11:44:32;;;;;;;4.47;1.08;;;;;;;5.95;83.33;100112.41;6252660;22;20433;-85
2022/02/17 11:47:05;;;;;;;4.45;0.85;;;;;;;5.92;83.06;100118.56;6305292;22;20019;-84
2022/02/17 11:49:47;;;;;;;1.50;0.60;;;;;;;5.90;83.16;100126.34;6305310;22;20015;-87
2022/02/17 11:52:21;;;;;;;4.47;0.75;;;;;;;5.89;83.49;100130.22;6276233;22;20025;-84
2022/02/17 11:55:10;;;;;;;4.22;0.65;;;;;;;5.98;83.74;100133.75;6303961;22;20016;-84
2022/02/17 11:57:38;;;;;;;3.80;0.80;;;;;;;5.97;83.57;100146.66;6305025;22;20042;-84
2022/02/17 12:00:26;;;;;;;4.22;0.52;;;;;;;5.94;83.68;100149.25;6277367;22;20445;-83
2022/02/17 12:02:58;;;;;;;2.67;1.08;;;;;;;5.93;83.76;100148.44;6304844;22;20050;-84
2022/02/17 12:05:25;;;;;;;3.40;0.85;;;;;;;5.91;84.31;100150.72;6305006;22;20019;-84
2022/02/17 12:08:12;;;;;;;2.80;0.68;;;;;;;5.91;84.33;100150.72;6277782;22;20015;-84
2022/02/17 12:10:39;;;;;;;3.08;1.02;;;;;;;5.94;84.47;100135.53;6304392;22;20607;-84
2022/02/17 12:13:09;;;;;;;3.42;1.05;;;;;;;6.10;84.58;100148.41;6304476;22;20030;-84
2022/02/17 12:15:43;;;;;;;4.13;1.02;;;;;;;6.16;84.71;100138.03;6304763;22;20037;-84
2022/02/17 12:18:10;;;;;;;5.63;1.40;;;;;;;6.13;84.62;100136.75;6277156;22;20042;-84
2022/02/17 12:20:37;;;;;;;3.72;1.35;;;;;;;6.14;84.86;100148.53;6272444;22;20026;-84
2022/02/17 12:23:08;;;;;;;3.65;1.00;;;;;;;6.18;85.00;100151.41;6280674;22;20019;-84
2022/02/17 12:25:40;;;;;;;6.53;1.38;;;;;;;6.27;85.27;100153.00;6304762;22;20019;-84
2022/02/17 12:28:12;;;;;;;6.60;1.40;;;;;;;6.31;85.55;100148.44;6304410;22;20019;-85
2022/02/17 12:30:42;;;;;;;7.45;1.65;;;;;;;6.40;85.43;100142.91;6277392;22;20046;-84
2022/02/17 12:33:20;;;;;;;4.85;1.55;;;;;;;6.46;85.30;100142.38;6304663;22;20019;-85
2022/02/17 12:36:00;;;;;;;5.68;1.58;;;;;;;6.44;85.04;100141.91;6277509;22;20019;-85
2022/02/17 12:38:32;;;;;;;1.45;1.00;;;;;;;6.45;85.17;100143.53;6303960;22;20015;-84
2022/02/17 12:41:07;;;;;;;9.13;1.30;;;;;;;6.52;85.54;100134.75;6276282;22;20019;-82
2022/02/17 12:43:38;;;;;;;4.32;1.40;;;;;;;6.61;85.01;100141.81;6278186;22;20248;-83
2022/02/17 12:46:08;;;;;;;4.07;1.75;;;;;;;6.66;85.12;100141.63;6278478;22;20014;-83
2022/02/17 12:48:38;;;;;;;4.55;1.17;;;;;;;6.77;85.01;100150.28;6276995;22;20094;-78
2022/02/17 12:51:25;;;;;;;4.65;1.40;;;;;;;6.86;85.03;100136.47;6304378;22;20019;-84
2022/02/17 12:53:56;;;;;;;5.03;1.15;;;;;;;6.92;84.40;100152.44;6250789;22;20023;-84
2022/02/17 12:56:30;;;;;;;4.47;1.40;;;;;;;7.00;84.69;100140.56;6303424;22;20007;-87
2022/02/17 12:59:13;;;;;;;3.25;1.23;;;;;;;7.14;84.44;100154.84;6275568;22;20023;-83
2022/02/17 13:01:42;;;;;;;6.40;1.33;;;;;;;7.28;84.05;100116.03;6278433;22;20011;-83
2022/02/17 13:04:10;;;;;;;5.53;0.95;;;;;;;7.34;83.72;100117.41;6278703;22;20483;-83
2022/02/17 13:06:40;;;;;;;4.68;1.73;;;;;;;7.40;83.38;100110.56;6279809;22;20038;-83
2022/02/17 13:09:16;;;;;;;4.18;1.20;;;;;;;7.40;82.86;100116.06;6278490;22;20098;-82
2022/02/17 13:11:52;;;;;;;3.22;1.52;;;;;;;7.42;82.20;100116.53;6279071;22;20020;-84
2022/02/17 13:14:23;;;;;;;2.65;0.80;;;;;;;7.45;82.39;100107.59;6279645;22;20019;-83
2022/02/17 13:16:55;;;;;;;3.50;0.88;;;;;;;7.54;82.66;100105.56;6306185;22;20099;-83
2022/02/17 13:19:39;;;;;;;3.88;1.10;;;;;;;7.64;80.88;100093.28;6279290;22;20021;-83
2022/02/17 13:22:20;;;;;;;2.40;0.77;;;;;;;7.61;80.26;100092.03;6277576;22;20054;-83
2022/02/17 13:24:59;;;;;;;11.82;1.30;;;;;;;7.63;80.42;100103.50;6278413;22;20016;-83
2022/02/17 13:27:31;;;;;;;2.83;1.00;;;;;;;7.66;79.04;100108.34;6278756;22;20102;-83
2022/02/17 13:30:00;;;;;;;;;;;;;;;7.70;77.68;100097.44;6279966;22;20019;-82
2022/02/17 13:32:31;;;;;;;3.33;0.70;;;;;;;7.64;79.67;100094.09;6279048;22;19919;-83
2022/02/17 13:35:01;;;;;;;4.22;1.13;;;;;;;7.57;79.33;100095.81;6252873;22;20029;-83
2022/02/17 13:37:46;;;;;;;3.10;0.90;;;;;;;7.48;77.74;100095.09;6279335;22;20088;-83
2022/02/17 13:40:14;;;;;;;8.00;1.60;;;;;;;7.48;79.74;100093.16;6306467;22;20019;-83
2022/02/17 13:42:58;;;;;;;4.07;0.60;;;;;;;7.48;79.37;100098.66;6306409;22;20015;-83
2022/02/17 13:45:29;;;;;;;3.42;0.85;;;;;;;7.47;79.77;100108.03;6279299;22;20022;-83
2022/02/17 13:47:56;;;;;;;3.42;1.02;;;;;;;7.46;79.92;100106.47;6253594;22;20136;-84
2022/02/17 13:50:25;;;;;;;3.47;1.00;;;;;;;7.48;80.12;100117.94;6253523;22;20019;-83
2022/02/17 13:53:12;;;;;;;4.05;1.30;;;;;;;7.56;81.06;100141.03;6278597;22;20441;-84
2022/02/17 13:55:57;;;;;;;2.55;1.23;;;;;;;7.62;80.42;100132.22;6278386;22;20034;-84
2022/02/17 13:58:26;;;;;;;4.43;1.48;;;;;;;7.68;80.59;100121.75;6253578;22;20029;-84
2022/02/17 14:01:01;;;;;;;7.63;1.88;;;;;;;7.68;80.42;100133.59;6279431;22;20011;-83
2022/02/17 14:03:34;;;;;;;5.55;1.42;;;;;;;7.66;80.33;100108.34;6305697;22;20023;-83
2022/02/17 14:06:19;;;;;;;9.73;1.92;;;;;;;7.68;80.14;100117.06;6253249;22;20341;-83
2022/02/17 14:08:50;;;;;;;7.40;2.58;;;;;;;7.70;80.34;100111.22;6279762;22;20019;-83
2022/02/17 14:11:21;;;;;;;3.23;1.33;;;;;;;7.72;80.11;100100.66;6278816;22;20023;-85
2022/02/17 14:13:49;;;;;;;6.47;1.67;;;;;;;7.75;80.34;100108.25;6305157;22;20015;-86
2022/02/17 17:34:22;;;;;;;;;;;;;;;;;;;;;
2022/02/17 17:39:10;;;;;;;;;;;;;;;;;;;;;
2022/02/17 17:43:04;;;;;;;;;;;;;;;;;;;;;
2022/02/17 23:32:42;;;;;;;4.78;0.50;;;;;;;4.38;87.51;99107.59;5538866;22;16202515;-82
2022/02/17 23:40:38;;;;;;;1.58;0.32;;;;;;;4.23;88.12;99060.59;6214799;23;20012;-82
2022/02/17 23:52:21;;;;;;;3.70;0.90;;;;;;;4.22;88.87;99001.47;5789372;24;20031;-82
